Flight Track Log - Related Links

Times and Time Zones

All times are in EDT time to prevent confusion due to time zone crossing. See the UAL5999 flight status page for this flight to view local times or setup timezone preferences in your user account.

Time Position Orientation Groundspeed Altitude Reporting Facility
EDT Latitude Longitude Course Direction KTS MPH feet Rate Location/Type
Thu 11:55:42 AM 41.9333 -87.9000 60° Northeast 170 196 2,400  Level Chicago TRACON
Thu 11:56:42 AM 41.9000 -87.8333 124° Southeast 210 242 4,400 1,867 Climbing Chicago TRACON
Thu 11:58:58 AM 41.9331 -87.6375 77° East 266 306 8,500 1,879 Climbing Chicago Center
Thu 11:59:00 AM 42.1598 -87.3531 77° East  Level Estimated
Thu 12:00:00 PM 42.2040 -87.2142 90° East  Level Estimated
Thu 12:00:00 PM 41.9842 -87.5533 51° Northeast 290 334 10,600  Level Chicago Center
Thu 12:01:00 PM 42.2584 -87.0862 60° Northeast  Level FlightAware Approximate
Thu 12:01:02 PM 42.0403 -87.4600 51° Northeast 315 362 11,900  Level Chicago Center
Thu 12:02:04 PM 42.1039 -87.3536 51° Northeast 357 411 13,100 1,403 Climbing Chicago Center
Thu 12:03:06 PM 42.1636 -87.2408 54° Northeast 368 423 14,800 1,790 Climbing Chicago Center
Thu 12:04:08 PM 42.1808 -87.0744 82° East 373 429 16,800 1,645 Climbing Chicago Center
Thu 12:05:10 PM 42.1894 -86.9319 85° East 381 438 18,200 1,403 Climbing Chicago Center
Thu 12:06:12 PM 42.1989 -86.7886 85° East 384 442 19,700 1,403 Climbing Chicago Center
Thu 12:07:14 PM 42.2083 -86.6569 84° East 386 444 21,100 1,488 Climbing Chicago Center
Thu 12:08:17 PM 42.2183 -86.4822 86° East 390 449 22,800 1,488 Climbing Chicago Center
Thu 12:09:19 PM 42.2283 -86.3344 85° East 394 453 24,200 1,306 Climbing Chicago Center
Thu 12:10:21 PM 42.2364 -86.1872 86° East 393 452 25,500 1,258 Climbing Chicago Center
Thu 12:11:23 PM 42.2447 -86.0369 86° East 400 460 26,800 1,306 Climbing Chicago Center
Thu 12:12:25 PM 42.2547 -85.8678 85° East 404 465 28,200 1,210 Climbing Chicago Center
Thu 12:13:27 PM 42.2631 -85.7172 86° East 406 467 29,300 1,065 Climbing Chicago Center
Thu 12:14:29 PM 42.2722 -85.5617 85° East 414 476 30,400 823 Climbing Chicago Center
Thu 12:15:31 PM 42.2814 -85.4031 85° East 425 489 31,000 290 Climbing Chicago Center
Thu 12:16:33 PM 42.2889 -85.2369 86° East 439 505 31,000  Level Chicago Center
Thu 12:17:35 PM 42.2994 -85.0250 86° East 467 537 31,000  Level Chicago Center
Thu 12:18:37 PM 42.3000 -84.8467 90° East 477 549 31,000  Level Chicago Center
Thu 12:19:39 PM 42.3361 -84.6814 73° East 463 533 31,000 288 Level Chicago Center
Thu 12:20:42 PM 42.3703 -84.5169 74° East 457 526 31,600 1,104 Climbing Chicago Center
Thu 12:21:44 PM 42.4042 -84.3592 74° East 444 511 33,300 1,732 Climbing Chicago Center
Thu 12:22:19 PM 42.4264 -84.2542 74° East 426 490 34,400 1,052 Climbing Cleveland Center
Thu 12:23:21 PM 42.4586 -84.1031 74° East 419 482 35,000 290 Climbing Cleveland Center
Thu 12:24:23 PM 42.4908 -83.9442 75° East 432 497 35,000  Level Cleveland Center
Thu 12:25:26 PM 42.5256 -83.7797 74° East 450 518 35,000  Level Cleveland Center
Thu 12:26:28 PM 42.5600 -83.6117 74° East 456 525 35,000  Level Cleveland Center
Thu 12:27:30 PM 42.6019 -83.4067 74° East 464 534 35,000  Level Cleveland Center
Thu 12:28:32 PM 42.6350 -83.2392 75° East 459 528 35,000  Level Cleveland Center
Thu 12:29:34 PM 42.6683 -83.0739 75° East 452 520 35,000  Level Cleveland Center
Thu 12:30:36 PM 42.7008 -82.9119 75° East 444 511 35,000  Level Cleveland Center
Thu 12:31:38 PM 42.7333 -82.7542 74° East 437 503 35,000  Level Cleveland Center
Thu 12:32:40 PM 42.7642 -82.5914 75° East 447 514 35,000  Level Cleveland Center
Thu 12:33:42 PM 42.7950 -82.4244 76° East 453 521 35,000  Level Cleveland Center
Thu 12:34:44 PM 42.8339 -82.2278 75° East 451 519 35,000  Level Cleveland Center
Thu 12:36:43 PM 42.9000 -81.8833 75° East 450 518 35,000  Level Toronto Center
Thu 12:37:43 PM 42.9167 -81.7333 81° East 450 518 35,000  Level Toronto Center
Thu 12:38:43 PM 42.9500 -81.5500 76° East 450 518 35,000  Level Toronto Center
Thu 12:39:43 PM 42.9833 -81.3833 75° East 450 518 35,000  Level Toronto Center
Thu 12:40:43 PM 43.0000 -81.2333 81° East 440 506 35,000  Level Toronto Center
Thu 12:41:43 PM 43.0333 -81.0667 75° East 430 495 35,000  Level Toronto Center
Thu 12:42:43 PM 43.0833 -80.9333 63° Northeast 430 495 35,000  Level Toronto Center
Thu 12:43:43 PM 43.1500 -80.7833 59° Northeast 430 495 35,000  Level Toronto Center
Thu 12:44:43 PM 43.2000 -80.6333 65° Northeast 430 495 35,000  Level Toronto Center
Thu 12:45:43 PM 43.2667 -80.4833 59° Northeast 440 506 35,000  Level Toronto Center
Thu 12:46:43 PM 43.3000 -80.3167 75° East 450 518 35,000  Level Toronto Center
Thu 12:47:43 PM 43.3667 -80.1667 59° Northeast 450 518 35,000  Level Toronto Center
Thu 12:48:43 PM 43.4167 -80.0167 65° Northeast 450 518 35,000  Level Toronto Center
Thu 12:49:43 PM 43.4667 -79.8667 65° Northeast 450 518 35,000  Level Toronto Center
Thu 12:50:43 PM 43.5167 -79.7000 67° East 450 518 35,000  Level Toronto Center
Thu 12:51:43 PM 43.5667 -79.5333 67° East 450 518 35,000  Level Toronto Center
Thu 12:52:43 PM 43.6167 -79.4000 63° Northeast 450 518 35,000  Level Toronto Center
Thu 12:53:43 PM 43.6833 -79.2333 61° Northeast 450 518 35,000  Level Toronto Center
Thu 12:54:43 PM 43.7333 -79.0833 65° Northeast 450 518 35,000  Level Toronto Center
Thu 12:55:43 PM 43.7833 -78.9167 67° East 460 529 35,000  Level Toronto Center
Thu 12:56:43 PM 43.8333 -78.7500 67° East 460 529 35,000  Level Toronto Center
Thu 12:57:43 PM 43.8833 -78.6000 65° Northeast 460 529 35,000  Level Toronto Center
Thu 12:58:43 PM 43.9333 -78.4333 67° East 460 529 35,000  Level Toronto Center
Thu 12:59:43 PM 43.9833 -78.2667 67° East 460 529 35,000  Level Toronto Center
Thu 01:00:43 PM 44.0333 -78.1000 67° East 460 529 35,000  Level Toronto Center
Thu 01:01:43 PM 44.0833 -77.9333 67° East 460 529 35,000  Level Toronto Center
Thu 01:02:43 PM 44.1500 -77.7667 61° Northeast 460 529 35,000  Level Toronto Center
Thu 01:03:43 PM 44.2000 -77.6167 65° Northeast 460 529 35,000  Level Toronto Center
Thu 01:04:43 PM 44.2500 -77.4500 67° East 470 541 35,000  Level Toronto Center
Thu 01:05:43 PM 44.2833 -77.2833 74° East 470 541 35,000  Level Toronto Center
Thu 01:06:43 PM 44.3500 -77.1167 61° Northeast 470 541 35,000  Level Toronto Center
Thu 01:07:57 PM 44.4000 -76.9333 69° East 470 541 35,000  Level Montreal Center
Thu 01:08:57 PM 44.4500 -76.7667 67° East 470 541 35,000  Level Montreal Center
Thu 01:09:57 PM 44.5000 -76.6000 67° East 470 541 35,000  Level Montreal Center
Thu 01:10:57 PM 44.5500 -76.4333 67° East 470 541 35,000 -550 Level Montreal Center
Thu 01:11:57 PM 44.6000 -76.2500 69° East 460 529 33,900 -1,250 Descending Montreal Center
Thu 01:12:57 PM 44.6500 -76.1167 62° Northeast 450 518 32,500 -1,550 Descending Montreal Center
Thu 01:13:57 PM 44.7000 -75.9500 67° East 450 518 30,800 -1,800 Descending Montreal Center
Thu 01:14:57 PM 44.7500 -75.7833 67° East 460 529 28,900 -2,150 Descending Montreal Center
Thu 01:15:57 PM 44.8000 -75.6167 67° East 450 518 26,500 -2,350 Descending Montreal Center
Thu 01:16:57 PM 44.8500 -75.4500 67° East 450 518 24,200 -2,450 Descending Montreal Center
Thu 01:17:57 PM 44.9000 -75.3000 65° Northeast 420 483 21,600 -2,500 Descending Montreal Center
Thu 01:18:57 PM 44.9500 -75.1333 67° East 420 483 19,200 -2,350 Descending Montreal Center
Thu 01:19:57 PM 45.0000 -75.0000 62° Northeast 380 437 16,900 -2,100 Descending Montreal Center
Thu 01:20:57 PM 45.0500 -74.8833 59° Northeast 380 437 15,000 -2,000 Descending Montreal Center
Thu 01:21:57 PM 45.0833 -74.7333 72° East 380 437 12,900 -2,000 Descending Montreal Center
Thu 01:22:57 PM 45.1333 -74.6167 59° Northeast 360 414 11,000 -1,450 Descending Montreal Center
Thu 01:23:57 PM 45.1667 -74.5000 68° East 300 345 10,000 -1,400 Descending Montreal Center
Thu 01:24:57 PM 45.2000 -74.4000 65° Northeast 270 311 8,200 -1,700 Descending Montreal Center
Thu 01:25:57 PM 45.2167 -74.3000 77° East 260 299 6,600 -1,550 Descending Montreal Center
Thu 01:26:57 PM 45.2500 -74.2000 65° Northeast 250 288 5,100 -1,300 Descending Montreal Center
Thu 01:27:57 PM 45.2500 -74.1167 90° East 240 276 4,000 -550 Descending Montreal Center
Thu 01:28:57 PM 45.2667 -74.0167 77° East 250 288 4,000 -250 Level Montreal Center
Thu 01:29:57 PM 45.3000 -73.9500 55° Northeast 220 253 3,500 -650 Descending Montreal Center
Thu 01:30:57 PM 45.3500 -73.9000 35° Northeast 210 242 2,700 -900 Descending Montreal Center
Thu 01:31:57 PM 45.3833 -73.8167 60° Northeast 190 219 1,700 -900 Descending Montreal Center
Thu 01:32:57 PM 45.4167 -73.8000 19° North 140 161 900 -750 Descending Montreal Center
Thu 01:33:57 PM 45.4500 -73.7500 46° Northeast 140 161 200 -400 Descending Montreal Center
Thu 01:34:57 PM 45.4667 -73.7167 55° Northeast 40 46 100 -100 Descending Montreal Center

Login

Don't have an account? Register now (free) for customized features, flight alerts, and more!